sensor_id;sensor_type;location;lat;lon;timestamp;temperature;humidity
2407;DHT22;37709;53.480;9.688;2023-04-04T00:00:41;-4.20;99.90
2407;DHT22;37709;53.480;9.688;2023-04-04T00:03:08;-4.30;99.90
2407;DHT22;37709;53.480;9.688;2023-04-04T00:05:36;-4.30;99.90
2407;DHT22;37709;53.480;9.688;2023-04-04T00:08:04;-4.30;99.90
2407;DHT22;37709;53.480;9.688;2023-04-04T00:10:31;-4.30;99.90
2407;DHT22;37709;53.480;9.688;2023-04-04T00:12:59;-4.30;99.90
2407;DHT22;37709;53.480;9.688;2023-04-04T00:15:26;-4.40;99.90
2407;DHT22;37709;53.480;9.688;2023-04-04T00:17:53;-4.50;99.90
2407;DHT22;37709;53.480;9.688;2023-04-04T00:20:20;-4.60;99.90
2407;DHT22;37709;53.480;9.688;2023-04-04T00:22:47;-4.60;99.90
2407;DHT22;37709;53.480;9.688;2023-04-04T00:25:15;-4.60;99.90
2407;DHT22;37709;53.480;9.688;2023-04-04T00:27:46;-4.60;99.90
2407;DHT22;37709;53.480;9.688;2023-04-04T00:30:14;-4.40;99.90
2407;DHT22;37709;53.480;9.688;2023-04-04T00:32:42;-4.40;99.90
2407;DHT22;37709;53.480;9.688;2023-04-04T00:35:09;-4.40;99.90
2407;DHT22;37709;53.480;9.688;2023-04-04T00:37:37;-4.40;99.90
2407;DHT22;37709;53.480;9.688;2023-04-04T00:40:06;-4.30;99.90
2407;DHT22;37709;53.480;9.688;2023-04-04T00:42:34;-4.30;99.90
2407;DHT22;37709;53.480;9.688;2023-04-04T00:45:03;-4.40;99.90
2407;DHT22;37709;53.480;9.688;2023-04-04T00:47:30;-4.50;99.90
2407;DHT22;37709;53.480;9.688;2023-04-04T00:49:57;-4.60;99.90
2407;DHT22;37709;53.480;9.688;2023-04-04T00:52:25;-4.70;99.90
2407;DHT22;37709;53.480;9.688;2023-04-04T00:54:54;-4.80;99.90
2407;DHT22;37709;53.480;9.688;2023-04-04T00:57:22;-4.80;99.90
2407;DHT22;37709;53.480;9.688;2023-04-04T00:59:50;-4.90;99.90
2407;DHT22;37709;53.480;9.688;2023-04-04T01:02:19;-4.90;99.90
2407;DHT22;37709;53.480;9.688;2023-04-04T01:04:46;-4.80;99.90
2407;DHT22;37709;53.480;9.688;2023-04-04T01:07:14;-4.70;99.90
2407;DHT22;37709;53.480;9.688;2023-04-04T01:09:42;-4.80;99.90
2407;DHT22;37709;53.480;9.688;2023-04-04T01:12:10;-4.90;99.90
2407;DHT22;37709;53.480;9.688;2023-04-04T01:14:37;-4.90;99.90
2407;DHT22;37709;53.480;9.688;2023-04-04T01:17:05;-4.90;99.90
2407;DHT22;37709;53.480;9.688;2023-04-04T01:19:35;-4.90;99.90
2407;DHT22;37709;53.480;9.688;2023-04-04T01:22:10;-4.80;99.90
2407;DHT22;37709;53.480;9.688;2023-04-04T01:24:41;-4.80;99.90
2407;DHT22;37709;53.480;9.688;2023-04-04T01:27:09;-4.80;99.90
2407;DHT22;37709;53.480;9.688;2023-04-04T01:29:42;-4.90;99.90
2407;DHT22;37709;53.480;9.688;2023-04-04T01:32:15;-4.90;99.90
2407;DHT22;37709;53.480;9.688;2023-04-04T01:35:02;-4.80;99.90
2407;DHT22;37709;53.480;9.688;2023-04-04T01:40:27;-4.70;99.90
2407;DHT22;37709;53.480;9.688;2023-04-04T01:42:57;-4.70;99.90
2407;DHT22;37709;53.480;9.688;2023-04-04T01:45:28;-4.70;99.90
2407;DHT22;37709;53.480;9.688;2023-04-04T01:47:57;-4.70;99.90
2407;DHT22;37709;53.480;9.688;2023-04-04T01:50:24;-4.60;99.90
2407;DHT22;37709;53.480;9.688;2023-04-04T01:52:52;-4.70;99.90
2407;DHT22;37709;53.480;9.688;2023-04-04T01:55:20;-4.80;99.90
2407;DHT22;37709;53.480;9.688;2023-04-04T01:57:47;-4.70;99.90
2407;DHT22;37709;53.480;9.688;2023-04-04T02:00:15;-4.60;99.90
2407;DHT22;37709;53.480;9.688;2023-04-04T02:02:43;-4.50;99.90
2407;DHT22;37709;53.480;9.688;2023-04-04T02:05:11;-4.50;99.90
2407;DHT22;37709;53.480;9.688;2023-04-04T02:07:39;-4.50;99.90
2407;DHT22;37709;53.480;9.688;2023-04-04T02:10:17;-4.50;99.90
2407;DHT22;37709;53.480;9.688;2023-04-04T02:12:44;-4.40;99.90
2407;DHT22;37709;53.480;9.688;2023-04-04T02:15:12;-4.40;99.90
2407;DHT22;37709;53.480;9.688;2023-04-04T02:17:40;-4.40;99.90
2407;DHT22;37709;53.480;9.688;2023-04-04T02:20:08;-4.50;99.90
2407;DHT22;37709;53.480;9.688;2023-04-04T02:22:36;-4.50;99.90
2407;DHT22;37709;53.480;9.688;2023-04-04T02:25:04;-4.50;99.90
2407;DHT22;37709;53.480;9.688;2023-04-04T02:27:31;-4.50;99.90
2407;DHT22;37709;53.480;9.688;2023-04-04T02:30:00;-4.40;99.90
2407;DHT22;37709;53.480;9.688;2023-04-04T02:32:29;-4.40;99.90
2407;DHT22;37709;53.480;9.688;2023-04-04T02:34:57;-4.50;99.90
2407;DHT22;37709;53.480;9.688;2023-04-04T02:37:25;-4.60;99.90
2407;DHT22;37709;53.480;9.688;2023-04-04T02:39:55;-4.60;99.90
2407;DHT22;37709;53.480;9.688;2023-04-04T02:42:22;-4.60;99.90
2407;DHT22;37709;53.480;9.688;2023-04-04T02:44:50;-4.60;99.90
2407;DHT22;37709;53.480;9.688;2023-04-04T02:47:18;-4.60;99.90
2407;DHT22;37709;53.480;9.688;2023-04-04T02:49:45;-4.60;99.90
2407;DHT22;37709;53.480;9.688;2023-04-04T02:52:14;-4.60;99.90
2407;DHT22;37709;53.480;9.688;2023-04-04T02:54:45;-4.60;99.90
2407;DHT22;37709;53.480;9.688;2023-04-04T02:57:21;-4.50;99.90
2407;DHT22;37709;53.480;9.688;2023-04-04T02:59:48;-4.50;99.90
2407;DHT22;37709;53.480;9.688;2023-04-04T03:02:15;-4.40;99.90
2407;DHT22;37709;53.480;9.688;2023-04-04T03:04:43;-4.40;99.90
2407;DHT22;37709;53.480;9.688;2023-04-04T03:07:10;-4.50;99.90
2407;DHT22;37709;53.480;9.688;2023-04-04T03:09:38;-4.50;99.90
2407;DHT22;37709;53.480;9.688;2023-04-04T03:12:06;-4.40;99.90
2407;DHT22;37709;53.480;9.688;2023-04-04T03:14:37;-4.40;99.90
2407;DHT22;37709;53.480;9.688;2023-04-04T03:17:05;-4.40;99.90
2407;DHT22;37709;53.480;9.688;2023-04-04T03:19:34;-4.40;99.90
2407;DHT22;37709;53.480;9.688;2023-04-04T03:22:01;-4.40;99.90
2407;DHT22;37709;53.480;9.688;2023-04-04T03:24:32;-4.40;99.90
2407;DHT22;37709;53.480;9.688;2023-04-04T03:27:00;-4.30;99.90
2407;DHT22;37709;53.480;9.688;2023-04-04T03:29:28;-4.30;99.90
2407;DHT22;37709;53.480;9.688;2023-04-04T03:31:56;-4.40;99.90
2407;DHT22;37709;53.480;9.688;2023-04-04T03:34:25;-4.40;99.90
2407;DHT22;37709;53.480;9.688;2023-04-04T03:36:53;-4.30;99.90
2407;DHT22;37709;53.480;9.688;2023-04-04T03:39:20;-4.20;99.90
2407;DHT22;37709;53.480;9.688;2023-04-04T03:41:47;-4.10;99.90
2407;DHT22;37709;53.480;9.688;2023-04-04T03:44:14;-4.20;99.90
2407;DHT22;37709;53.480;9.688;2023-04-04T03:46:42;-4.20;99.90
2407;DHT22;37709;53.480;9.688;2023-04-04T03:49:12;-4.20;99.90
2407;DHT22;37709;53.480;9.688;2023-04-04T03:51:39;-4.10;99.90
2407;DHT22;37709;53.480;9.688;2023-04-04T03:54:06;-4.10;99.90
2407;DHT22;37709;53.480;9.688;2023-04-04T03:56:35;-4.10;99.90
2407;DHT22;37709;53.480;9.688;2023-04-04T03:59:05;-4.20;99.90
2407;DHT22;37709;53.480;9.688;2023-04-04T04:01:33;-4.20;99.90
2407;DHT22;37709;53.480;9.688;2023-04-04T04:04:01;-4.20;99.90
2407;DHT22;37709;53.480;9.688;2023-04-04T04:06:29;-4.20;99.90
2407;DHT22;37709;53.480;9.688;2023-04-04T04:08:56;-4.20;99.90
2407;DHT22;37709;53.480;9.688;2023-04-04T04:11:24;-4.10;99.90
2407;DHT22;37709;53.480;9.688;2023-04-04T04:13:51;-4.00;99.90
2407;DHT22;37709;53.480;9.688;2023-04-04T04:16:18;-4.00;99.90
2407;DHT22;37709;53.480;9.688;2023-04-04T04:18:47;-4.00;99.90
2407;DHT22;37709;53.480;9.688;2023-04-04T04:21:22;-4.00;99.90
2407;DHT22;37709;53.480;9.688;2023-04-04T04:23:51;-4.00;99.90
2407;DHT22;37709;53.480;9.688;2023-04-04T04:26:18;-4.00;99.90
2407;DHT22;37709;53.480;9.688;2023-04-04T04:28:46;-4.00;99.90
2407;DHT22;37709;53.480;9.688;2023-04-04T04:31:19;-3.90;99.90
2407;DHT22;37709;53.480;9.688;2023-04-04T04:34:15;-3.80;99.90
2407;DHT22;37709;53.480;9.688;2023-04-04T04:36:43;-3.70;99.90
2407;DHT22;37709;53.480;9.688;2023-04-04T04:39:18;-3.80;99.90
2407;DHT22;37709;53.480;9.688;2023-04-04T04:42:05;-3.80;99.90
2407;DHT22;37709;53.480;9.688;2023-04-04T04:44:35;-3.70;99.90
2407;DHT22;37709;53.480;9.688;2023-04-04T04:47:04;-3.70;99.90
2407;DHT22;37709;53.480;9.688;2023-04-04T04:49:37;-3.70;99.90
2407;DHT22;37709;53.480;9.688;2023-04-04T04:52:07;-3.70;99.90
2407;DHT22;37709;53.480;9.688;2023-04-04T04:54:39;-3.70;99.90
2407;DHT22;37709;53.480;9.688;2023-04-04T04:57:07;-3.70;99.90
2407;DHT22;37709;53.480;9.688;2023-04-04T04:59:40;-3.80;99.90
2407;DHT22;37709;53.480;9.688;2023-04-04T05:02:09;-3.70;99.90
2407;DHT22;37709;53.480;9.688;2023-04-04T05:04:41;-3.70;99.90
2407;DHT22;37709;53.480;9.688;2023-04-04T05:07:12;-3.60;99.90
2407;DHT22;37709;53.480;9.688;2023-04-04T05:09:45;-3.60;99.90
2407;DHT22;37709;53.480;9.688;2023-04-04T05:12:13;-3.50;99.90
2407;DHT22;37709;53.480;9.688;2023-04-04T05:14:45;-3.40;99.90
2407;DHT22;37709;53.480;9.688;2023-04-04T05:17:12;-3.40;99.90
2407;DHT22;37709;53.480;9.688;2023-04-04T05:19:41;-3.30;99.90
2407;DHT22;37709;53.480;9.688;2023-04-04T05:22:12;-3.20;99.90
2407;DHT22;37709;53.480;9.688;2023-04-04T05:24:45;-3.20;99.90
2407;DHT22;37709;53.480;9.688;2023-04-04T05:27:15;-3.10;99.90
2407;DHT22;37709;53.480;9.688;2023-04-04T05:29:47;-3.00;99.90
2407;DHT22;37709;53.480;9.688;2023-04-04T05:32:15;-2.90;99.90
2407;DHT22;37709;53.480;9.688;2023-04-04T05:34:49;-2.70;99.90
2407;DHT22;37709;53.480;9.688;2023-04-04T05:37:19;-2.60;99.90
2407;DHT22;37709;53.480;9.688;2023-04-04T05:39:48;-2.50;99.90
2407;DHT22;37709;53.480;9.688;2023-04-04T05:42:17;-2.50;99.90
2407;DHT22;37709;53.480;9.688;2023-04-04T05:44:50;-2.50;99.90
2407;DHT22;37709;53.480;9.688;2023-04-04T05:47:19;-2.50;99.90
2407;DHT22;37709;53.480;9.688;2023-04-04T05:49:49;-2.30;99.90
2407;DHT22;37709;53.480;9.688;2023-04-04T05:52:17;-2.20;99.90
2407;DHT22;37709;53.480;9.688;2023-04-04T05:54:44;-2.10;99.90
2407;DHT22;37709;53.480;9.688;2023-04-04T05:57:21;-2.00;99.90
2407;DHT22;37709;53.480;9.688;2023-04-04T05:59:54;-1.90;99.90
2407;DHT22;37709;53.480;9.688;2023-04-04T06:02:21;-1.80;99.90
2407;DHT22;37709;53.480;9.688;2023-04-04T06:04:54;-1.70;99.90
2407;DHT22;37709;53.480;9.688;2023-04-04T06:07:34;-1.60;99.90
2407;DHT22;37709;53.480;9.688;2023-04-04T06:10:05;-1.60;99.90
2407;DHT22;37709;53.480;9.688;2023-04-04T06:12:35;-1.60;99.90
2407;DHT22;37709;53.480;9.688;2023-04-04T06:15:07;-1.60;99.90
2407;DHT22;37709;53.480;9.688;2023-04-04T06:17:36;-1.60;99.90
2407;DHT22;37709;53.480;9.688;2023-04-04T06:20:04;-1.70;99.90
2407;DHT22;37709;53.480;9.688;2023-04-04T06:22:36;-1.70;99.90
2407;DHT22;37709;53.480;9.688;2023-04-04T06:25:06;-1.80;99.90
2407;DHT22;37709;53.480;9.688;2023-04-04T06:27:38;-1.90;99.90
2407;DHT22;37709;53.480;9.688;2023-04-04T06:30:07;-1.90;99.90
2407;DHT22;37709;53.480;9.688;2023-04-04T06:32:38;-1.90;99.90
2407;DHT22;37709;53.480;9.688;2023-04-04T06:35:07;-1.90;99.90
2407;DHT22;37709;53.480;9.688;2023-04-04T06:37:55;-1.90;99.90
2407;DHT22;37709;53.480;9.688;2023-04-04T06:40:24;-1.70;99.90
2407;DHT22;37709;53.480;9.688;2023-04-04T06:42:53;-1.50;99.90
2407;DHT22;37709;53.480;9.688;2023-04-04T06:45:27;-1.30;99.90
2407;DHT22;37709;53.480;9.688;2023-04-04T06:47:55;-1.00;99.90
2407;DHT22;37709;53.480;9.688;2023-04-04T06:50:23;-0.40;99.90
2407;DHT22;37709;53.480;9.688;2023-04-04T06:52:50;0.30;99.90
2407;DHT22;37709;53.480;9.688;2023-04-04T06:55:18;1.40;99.90
2407;DHT22;37709;53.480;9.688;2023-04-04T06:57:46;2.70;99.90
2407;DHT22;37709;53.480;9.688;2023-04-04T07:00:15;4.30;99.90
2407;DHT22;37709;53.480;9.688;2023-04-04T07:02:42;6.10;99.90
2407;DHT22;37709;53.480;9.688;2023-04-04T07:05:09;7.70;99.90
2407;DHT22;37709;53.480;9.688;2023-04-04T07:07:37;9.00;99.90
2407;DHT22;37709;53.480;9.688;2023-04-04T07:10:04;10.10;99.90
2407;DHT22;37709;53.480;9.688;2023-04-04T07:12:32;10.80;99.90
2407;DHT22;37709;53.480;9.688;2023-04-04T07:14:59;11.40;99.90
2407;DHT22;37709;53.480;9.688;2023-04-04T07:17:26;11.80;95.50
2407;DHT22;37709;53.480;9.688;2023-04-04T07:19:55;12.10;93.60
2407;DHT22;37709;53.480;9.688;2023-04-04T07:22:48;12.30;89.00
2407;DHT22;37709;53.480;9.688;2023-04-04T07:25:15;12.60;77.40
2407;DHT22;37709;53.480;9.688;2023-04-04T07:27:48;12.80;75.00
2407;DHT22;37709;53.480;9.688;2023-04-04T07:30:38;12.90;69.50
2407;DHT22;37709;53.480;9.688;2023-04-04T07:33:05;13.00;70.10
2407;DHT22;37709;53.480;9.688;2023-04-04T07:35:37;13.60;68.00
2407;DHT22;37709;53.480;9.688;2023-04-04T07:38:04;13.90;64.70
2407;DHT22;37709;53.480;9.688;2023-04-04T07:40:31;14.20;61.60
2407;DHT22;37709;53.480;9.688;2023-04-04T07:42:58;14.70;65.70
2407;DHT22;37709;53.480;9.688;2023-04-04T07:45:26;15.50;61.20
2407;DHT22;37709;53.480;9.688;2023-04-04T07:47:54;16.00;57.20
2407;DHT22;37709;53.480;9.688;2023-04-04T07:50:22;16.10;54.60
2407;DHT22;37709;53.480;9.688;2023-04-04T07:52:49;16.70;53.00
2407;DHT22;37709;53.480;9.688;2023-04-04T07:55:18;17.40;50.80
2407;DHT22;37709;53.480;9.688;2023-04-04T07:57:46;17.70;49.70
2407;DHT22;37709;53.480;9.688;2023-04-04T08:00:15;17.70;48.10
2407;DHT22;37709;53.480;9.688;2023-04-04T08:02:54;18.30;48.40
2407;DHT22;37709;53.480;9.688;2023-04-04T08:05:22;19.00;46.60
2407;DHT22;37709;53.480;9.688;2023-04-04T08:07:51;19.70;45.20
2407;DHT22;37709;53.480;9.688;2023-04-04T08:10:18;20.10;44.60
2407;DHT22;37709;53.480;9.688;2023-04-04T08:12:48;20.60;42.80
2407;DHT22;37709;53.480;9.688;2023-04-04T08:15:15;20.80;42.80
2407;DHT22;37709;53.480;9.688;2023-04-04T08:17:43;20.60;41.70
2407;DHT22;37709;53.480;9.688;2023-04-04T08:20:11;20.60;42.40
2407;DHT22;37709;53.480;9.688;2023-04-04T08:22:39;20.40;40.50
2407;DHT22;37709;53.480;9.688;2023-04-04T08:25:08;21.10;40.90
2407;DHT22;37709;53.480;9.688;2023-04-04T08:27:40;22.10;39.80
2407;DHT22;37709;53.480;9.688;2023-04-04T08:30:14;22.70;37.90
2407;DHT22;37709;53.480;9.688;2023-04-04T08:32:42;21.90;36.60
2407;DHT22;37709;53.480;9.688;2023-04-04T08:35:12;22.60;37.10
2407;DHT22;37709;53.480;9.688;2023-04-04T08:37:44;23.40;37.70
2407;DHT22;37709;53.480;9.688;2023-04-04T08:40:12;23.10;35.80
2407;DHT22;37709;53.480;9.688;2023-04-04T08:42:40;22.60;34.10
2407;DHT22;37709;53.480;9.688;2023-04-04T08:45:11;21.90;33.50
2407;DHT22;37709;53.480;9.688;2023-04-04T08:47:40;20.90;35.70
2407;DHT22;37709;53.480;9.688;2023-04-04T08:50:09;20.00;36.10
2407;DHT22;37709;53.480;9.688;2023-04-04T08:52:37;20.30;36.60
2407;DHT22;37709;53.480;9.688;2023-04-04T08:55:05;19.40;36.40
2407;DHT22;37709;53.480;9.688;2023-04-04T08:57:32;18.40;37.10
2407;DHT22;37709;53.480;9.688;2023-04-04T09:00:25;18.40;39.00
2407;DHT22;37709;53.480;9.688;2023-04-04T09:03:16;20.80;37.80
2407;DHT22;37709;53.480;9.688;2023-04-04T09:05:46;22.90;36.10
2407;DHT22;37709;53.480;9.688;2023-04-04T09:08:15;23.40;35.70
2407;DHT22;37709;53.480;9.688;2023-04-04T09:10:46;23.30;35.90
2407;DHT22;37709;53.480;9.688;2023-04-04T09:13:15;22.20;37.40
2407;DHT22;37709;53.480;9.688;2023-04-04T09:15:51;23.20;36.30
2407;DHT22;37709;53.480;9.688;2023-04-04T09:18:20;24.10;36.00
2407;DHT22;37709;53.480;9.688;2023-04-04T09:20:47;24.70;35.80
2407;DHT22;37709;53.480;9.688;2023-04-04T09:23:16;24.80;35.40
2407;DHT22;37709;53.480;9.688;2023-04-04T09:25:51;25.90;34.70
2407;DHT22;37709;53.480;9.688;2023-04-04T09:28:22;27.60;32.50
2407;DHT22;37709;53.480;9.688;2023-04-04T09:30:52;28.10;31.90
2407;DHT22;37709;53.480;9.688;2023-04-04T09:33:22;27.40;30.20
2407;DHT22;37709;53.480;9.688;2023-04-04T09:35:56;27.10;31.50
2407;DHT22;37709;53.480;9.688;2023-04-04T09:38:26;26.30;30.30
2407;DHT22;37709;53.480;9.688;2023-04-04T09:40:54;26.60;31.20
2407;DHT22;37709;53.480;9.688;2023-04-04T09:43:24;27.30;30.00
2407;DHT22;37709;53.480;9.688;2023-04-04T09:45:53;27.30;29.30
2407;DHT22;37709;53.480;9.688;2023-04-04T09:48:29;27.10;31.50
2407;DHT22;37709;53.480;9.688;2023-04-04T09:50:58;28.00;30.20
2407;DHT22;37709;53.480;9.688;2023-04-04T09:58:26;29.50;29.30
2407;DHT22;37709;53.480;9.688;2023-04-04T10:11:07;28.60;30.00
2407;DHT22;37709;53.480;9.688;2023-04-04T10:13:39;29.60;26.80
2407;DHT22;37709;53.480;9.688;2023-04-04T10:16:10;29.00;26.40
2407;DHT22;37709;53.480;9.688;2023-04-04T10:18:38;27.80;25.60
2407;DHT22;37709;53.480;9.688;2023-04-04T10:21:32;26.60;26.20
2407;DHT22;37709;53.480;9.688;2023-04-04T10:24:00;26.80;28.80
2407;DHT22;37709;53.480;9.688;2023-04-04T10:26:34;27.80;27.50
2407;DHT22;37709;53.480;9.688;2023-04-04T12:05:45;28.60;27.80
2407;DHT22;37709;53.480;9.688;2023-04-04T12:08:13;26.50;21.90
2407;DHT22;37709;53.480;9.688;2023-04-04T12:10:41;24.80;22.70
2407;DHT22;37709;53.480;9.688;2023-04-04T12:13:10;23.90;24.60
2407;DHT22;37709;53.480;9.688;2023-04-04T12:15:41;24.20;24.90
2407;DHT22;37709;53.480;9.688;2023-04-04T12:18:09;24.20;26.40
2407;DHT22;37709;53.480;9.688;2023-04-04T12:20:37;24.60;25.50
2407;DHT22;37709;53.480;9.688;2023-04-04T12:23:06;24.50;24.80
2407;DHT22;37709;53.480;9.688;2023-04-04T12:25:36;24.30;24.50
2407;DHT22;37709;53.480;9.688;2023-04-04T12:28:06;24.30;25.10
2407;DHT22;37709;53.480;9.688;2023-04-04T12:30:34;24.60;25.40
2407;DHT22;37709;53.480;9.688;2023-04-04T12:33:02;24.50;24.90
2407;DHT22;37709;53.480;9.688;2023-04-04T12:35:29;24.30;24.40
2407;DHT22;37709;53.480;9.688;2023-04-04T12:38:05;24.10;23.70
2407;DHT22;37709;53.480;9.688;2023-04-04T12:40:37;24.00;24.20
2407;DHT22;37709;53.480;9.688;2023-04-04T12:43:06;24.10;24.70
2407;DHT22;37709;53.480;9.688;2023-04-04T12:50:53;27.30;23.50
2407;DHT22;37709;53.480;9.688;2023-04-04T12:53:25;30.20;19.90
2407;DHT22;37709;53.480;9.688;2023-04-04T12:56:03;29.30;19.60
2407;DHT22;37709;53.480;9.688;2023-04-04T12:58:31;29.50;20.60
2407;DHT22;37709;53.480;9.688;2023-04-04T13:01:02;29.40;20.90
2407;DHT22;37709;53.480;9.688;2023-04-04T13:03:29;28.80;19.90
2407;DHT22;37709;53.480;9.688;2023-04-04T13:05:57;27.90;20.10
2407;DHT22;37709;53.480;9.688;2023-04-04T13:08:26;28.60;21.40
2407;DHT22;37709;53.480;9.688;2023-04-04T13:11:01;28.00;20.20
2407;DHT22;37709;53.480;9.688;2023-04-04T13:13:34;26.50;20.60
2407;DHT22;37709;53.480;9.688;2023-04-04T13:16:28;25.50;21.40
2407;DHT22;37709;53.480;9.688;2023-04-04T13:18:57;25.10;21.90
2407;DHT22;37709;53.480;9.688;2023-04-04T13:21:25;24.50;21.50
2407;DHT22;37709;53.480;9.688;2023-04-04T13:23:52;23.20;22.10
2407;DHT22;37709;53.480;9.688;2023-04-04T13:26:20;22.80;23.10
2407;DHT22;37709;53.480;9.688;2023-04-04T13:28:48;22.60;23.50
2407;DHT22;37709;53.480;9.688;2023-04-04T13:31:16;23.00;23.40
2407;DHT22;37709;53.480;9.688;2023-04-04T13:33:43;22.80;22.30
2407;DHT22;37709;53.480;9.688;2023-04-04T13:36:10;22.30;22.80
2407;DHT22;37709;53.480;9.688;2023-04-04T13:38:40;22.20;24.20
2407;DHT22;37709;53.480;9.688;2023-04-04T13:41:07;23.40;23.10
2407;DHT22;37709;53.480;9.688;2023-04-04T13:43:35;22.90;23.30
2407;DHT22;37709;53.480;9.688;2023-04-04T13:46:02;22.80;24.30
2407;DHT22;37709;53.480;9.688;2023-04-04T13:48:29;22.70;22.80
2407;DHT22;37709;53.480;9.688;2023-04-04T13:50:57;23.60;22.90
2407;DHT22;37709;53.480;9.688;2023-04-04T13:53:26;23.50;23.00
2407;DHT22;37709;53.480;9.688;2023-04-04T13:55:53;24.10;23.60
2407;DHT22;37709;53.480;9.688;2023-04-04T13:58:41;24.70;22.50
2407;DHT22;37709;53.480;9.688;2023-04-04T14:01:09;24.40;22.70
2407;DHT22;37709;53.480;9.688;2023-04-04T14:03:37;24.00;23.50
2407;DHT22;37709;53.480;9.688;2023-04-04T14:06:04;23.80;23.50
2407;DHT22;37709;53.480;9.688;2023-04-04T14:09:02;23.40;24.20
2407;DHT22;37709;53.480;9.688;2023-04-04T14:11:30;22.90;23.40
2407;DHT22;37709;53.480;9.688;2023-04-04T14:14:23;22.80;22.50
2407;DHT22;37709;53.480;9.688;2023-04-04T14:16:51;22.70;24.30
2407;DHT22;37709;53.480;9.688;2023-04-04T14:19:19;22.70;23.60
2407;DHT22;37709;53.480;9.688;2023-04-04T14:22:11;22.90;23.00
2407;DHT22;37709;53.480;9.688;2023-04-04T14:24:39;24.30;24.40
2407;DHT22;37709;53.480;9.688;2023-04-04T14:27:06;25.20;23.20
2407;DHT22;37709;53.480;9.688;2023-04-04T14:29:33;25.70;22.10
2407;DHT22;37709;53.480;9.688;2023-04-04T14:32:02;25.80;22.40
2407;DHT22;37709;53.480;9.688;2023-04-04T14:34:29;25.90;21.20
2407;DHT22;37709;53.480;9.688;2023-04-04T14:36:58;26.20;21.70
2407;DHT22;37709;53.480;9.688;2023-04-04T14:39:25;25.70;22.90
2407;DHT22;37709;53.480;9.688;2023-04-04T14:41:54;24.50;23.80
2407;DHT22;37709;53.480;9.688;2023-04-04T14:44:22;23.70;23.90
2407;DHT22;37709;53.480;9.688;2023-04-04T14:46:51;22.80;24.20
2407;DHT22;37709;53.480;9.688;2023-04-04T14:49:21;22.00;24.50
2407;DHT22;37709;53.480;9.688;2023-04-04T14:51:50;21.00;24.50
2407;DHT22;37709;53.480;9.688;2023-04-04T14:54:18;20.20;24.80
2407;DHT22;37709;53.480;9.688;2023-04-04T14:56:45;19.50;25.30
2407;DHT22;37709;53.480;9.688;2023-04-04T14:59:13;19.20;25.80
2407;DHT22;37709;53.480;9.688;2023-04-04T15:01:40;18.90;25.80
2407;DHT22;37709;53.480;9.688;2023-04-04T15:04:10;18.70;25.40
2407;DHT22;37709;53.480;9.688;2023-04-04T15:06:37;18.10;25.90
2407;DHT22;37709;53.480;9.688;2023-04-04T15:09:06;17.70;26.10
2407;DHT22;37709;53.480;9.688;2023-04-04T15:11:34;17.90;27.40
2407;DHT22;37709;53.480;9.688;2023-04-04T15:14:02;18.00;26.90
2407;DHT22;37709;53.480;9.688;2023-04-04T15:16:30;18.30;28.60
2407;DHT22;37709;53.480;9.688;2023-04-04T15:19:24;18.40;28.40
2407;DHT22;37709;53.480;9.688;2023-04-04T15:21:52;18.50;28.10
2407;DHT22;37709;53.480;9.688;2023-04-04T15:24:20;18.40;27.90
2407;DHT22;37709;53.480;9.688;2023-04-04T15:26:48;18.20;28.60
2407;DHT22;37709;53.480;9.688;2023-04-04T15:29:15;18.00;28.40
2407;DHT22;37709;53.480;9.688;2023-04-04T15:31:42;17.90;28.30
2407;DHT22;37709;53.480;9.688;2023-04-04T15:34:09;17.90;29.40
2407;DHT22;37709;53.480;9.688;2023-04-04T15:36:37;17.80;28.80
2407;DHT22;37709;53.480;9.688;2023-04-04T15:39:04;17.80;28.40
2407;DHT22;37709;53.480;9.688;2023-04-04T15:41:32;17.60;29.30
2407;DHT22;37709;53.480;9.688;2023-04-04T15:43:59;17.10;28.30
2407;DHT22;37709;53.480;9.688;2023-04-04T15:46:29;16.70;28.90
2407;DHT22;37709;53.480;9.688;2023-04-04T15:48:56;16.20;29.40
2407;DHT22;37709;53.480;9.688;2023-04-04T15:51:24;15.80;29.80
2407;DHT22;37709;53.480;9.688;2023-04-04T15:53:55;15.20;29.80
2407;DHT22;37709;53.480;9.688;2023-04-04T15:56:22;14.80;30.90
2407;DHT22;37709;53.480;9.688;2023-04-04T15:58:49;14.70;31.50
2407;DHT22;37709;53.480;9.688;2023-04-04T16:01:17;14.60;30.90
2407;DHT22;37709;53.480;9.688;2023-04-04T16:03:45;14.10;31.50
2407;DHT22;37709;53.480;9.688;2023-04-04T16:06:15;13.80;31.30
2407;DHT22;37709;53.480;9.688;2023-04-04T16:08:43;13.70;32.00
2407;DHT22;37709;53.480;9.688;2023-04-04T16:11:10;13.50;32.60
2407;DHT22;37709;53.480;9.688;2023-04-04T16:13:37;13.50;32.80
2407;DHT22;37709;53.480;9.688;2023-04-04T16:16:05;13.40;32.70
2407;DHT22;37709;53.480;9.688;2023-04-04T16:18:33;13.10;33.50
2407;DHT22;37709;53.480;9.688;2023-04-04T16:21:02;13.10;34.00
2407;DHT22;37709;53.480;9.688;2023-04-04T16:23:31;12.80;32.90
2407;DHT22;37709;53.480;9.688;2023-04-04T16:25:58;12.70;33.60
2407;DHT22;37709;53.480;9.688;2023-04-04T16:28:26;12.40;34.20
2407;DHT22;37709;53.480;9.688;2023-04-04T16:30:54;12.10;34.10
2407;DHT22;37709;53.480;9.688;2023-04-04T16:33:21;11.70;33.80
2407;DHT22;37709;53.480;9.688;2023-04-04T16:35:52;11.60;35.00
2407;DHT22;37709;53.480;9.688;2023-04-04T16:38:21;11.40;35.20
2407;DHT22;37709;53.480;9.688;2023-04-04T16:40:48;11.10;35.90
2407;DHT22;37709;53.480;9.688;2023-04-04T16:43:15;10.90;36.30
2407;DHT22;37709;53.480;9.688;2023-04-04T16:45:42;10.70;36.70
2407;DHT22;37709;53.480;9.688;2023-04-04T16:48:12;10.40;38.10
2407;DHT22;37709;53.480;9.688;2023-04-04T16:50:39;10.20;39.20
2407;DHT22;37709;53.480;9.688;2023-04-04T16:53:07;9.90;39.10
2407;DHT22;37709;53.480;9.688;2023-04-04T16:55:36;9.90;40.10
2407;DHT22;37709;53.480;9.688;2023-04-04T16:58:29;9.70;40.30
2407;DHT22;37709;53.480;9.688;2023-04-04T17:00:57;9.60;41.30
2407;DHT22;37709;53.480;9.688;2023-04-04T17:03:24;9.30;42.30
2407;DHT22;37709;53.480;9.688;2023-04-04T17:05:52;8.90;41.80
2407;DHT22;37709;53.480;9.688;2023-04-04T17:08:22;8.60;42.80
2407;DHT22;37709;53.480;9.688;2023-04-04T17:11:15;8.40;44.30
2407;DHT22;37709;53.480;9.688;2023-04-04T17:13:42;8.00;45.60
2407;DHT22;37709;53.480;9.688;2023-04-04T17:16:10;7.80;47.20
2407;DHT22;37709;53.480;9.688;2023-04-04T17:18:38;7.60;47.60
2407;DHT22;37709;53.480;9.688;2023-04-04T17:21:06;7.30;48.30
2407;DHT22;37709;53.480;9.688;2023-04-04T17:23:33;7.10;49.60
2407;DHT22;37709;53.480;9.688;2023-04-04T17:26:01;6.80;50.60
2407;DHT22;37709;53.480;9.688;2023-04-04T17:28:29;6.70;51.40
2407;DHT22;37709;53.480;9.688;2023-04-04T17:30:57;6.50;52.10
2407;DHT22;37709;53.480;9.688;2023-04-04T17:33:25;6.30;53.10
2407;DHT22;37709;53.480;9.688;2023-04-04T17:35:53;6.10;53.50
2407;DHT22;37709;53.480;9.688;2023-04-04T17:38:22;5.90;53.90
2407;DHT22;37709;53.480;9.688;2023-04-04T17:40:49;5.70;54.80
2407;DHT22;37709;53.480;9.688;2023-04-04T17:43:19;5.60;55.30
2407;DHT22;37709;53.480;9.688;2023-04-04T17:45:47;5.30;55.90
2407;DHT22;37709;53.480;9.688;2023-04-04T17:48:15;5.10;56.20
2407;DHT22;37709;53.480;9.688;2023-04-04T17:50:43;4.90;57.10
2407;DHT22;37709;53.480;9.688;2023-04-04T17:53:11;4.70;58.60
2407;DHT22;37709;53.480;9.688;2023-04-04T17:55:38;4.70;59.40
2407;DHT22;37709;53.480;9.688;2023-04-04T17:58:06;4.50;59.60
2407;DHT22;37709;53.480;9.688;2023-04-04T18:00:34;4.30;61.30
2407;DHT22;37709;53.480;9.688;2023-04-04T18:03:02;4.10;61.50